Time;durP1;ratioP1;P1;durP2;ratioP2;P2;SDS_P1;SDS_P2;PMS_P1;PMS_P2;Temp;Humidity;BMP_temperature;BMP_pressure;BME280_temperature;BME280_humidity;BME280_pressure;Samples;Min_cycle;Max_cycle;Signal;HPM_P1;HPM_P2
2023/01/18 00:01:18;;;;;;;4.03;2.23;;;;;;;7.79;100.00;97608.63;1410851;90;22124;-83
2023/01/18 00:03:44;;;;;;;5.50;3.03;;;;;;;7.88;100.00;97607.42;1449580;89;22425;-84
2023/01/18 00:06:11;;;;;;;5.20;3.00;;;;;;;7.97;100.00;97612.84;1445682;90;21448;-83
2023/01/18 00:08:38;;;;;;;3.47;2.07;;;;;;;8.07;100.00;97611.12;1448029;90;21448;-83
2023/01/18 00:11:12;;;;;;;3.00;1.87;;;;;;;8.16;100.00;97618.33;1449101;89;21456;-84
2023/01/18 00:13:38;;;;;;;2.27;1.77;;;;;;;8.24;100.00;97626.05;1454981;89;21452;-86
2023/01/18 00:16:09;;;;;;;2.90;1.70;;;;;;;8.38;100.00;97617.66;1447818;90;22402;-83
2023/01/18 00:18:35;;;;;;;5.97;2.22;;;;;;;8.52;100.00;97615.36;1445810;90;21493;-84
2023/01/18 00:21:07;;;;;;;2.13;1.80;;;;;;;8.73;100.00;97627.00;1445854;89;21456;-85
2023/01/18 00:23:34;;;;;;;4.17;2.37;;;;;;;9.04;96.68;97625.55;1452305;89;21385;-86
2023/01/18 00:26:02;;;;;;;3.13;2.57;;;;;;;9.38;95.06;97637.65;1448901;89;21647;-87
2023/01/18 00:28:29;;;;;;;6.43;3.67;;;;;;;9.57;92.57;97624.58;1443768;90;21418;-87
2023/01/18 00:30:55;;;;;;;7.73;1.83;;;;;;;9.75;92.32;97635.25;1443597;88;22426;-83
2023/01/18 00:33:22;;;;;;;5.20;2.27;;;;;;;9.90;89.29;97601.46;1433270;91;21590;-87
2023/01/18 00:36:02;;;;;;;2.63;1.90;;;;;;;10.04;89.02;97634.39;1445987;90;22550;-83
2023/01/18 00:38:29;;;;;;;9.05;2.52;;;;;;;10.13;86.80;97630.50;1451665;90;21567;-91
2023/01/18 00:40:56;;;;;;;3.73;2.00;;;;;;;10.23;86.37;97630.83;1443618;90;21683;-90
2023/01/18 00:43:38;;;;;;;4.00;2.10;;;;;;;10.32;86.28;97644.11;1444638;90;21480;-88
2023/01/18 00:46:14;;;;;;;3.70;2.00;;;;;;;10.36;86.14;97624.69;1427486;92;21508;-87
2023/01/18 00:48:47;;;;;;;3.67;2.37;;;;;;;10.41;84.66;97617.42;1447163;90;21532;-94
2023/01/18 00:51:15;;;;;;;3.33;2.35;;;;;;;10.44;84.38;97622.27;1422657;92;21493;-88
2023/01/18 00:53:45;;;;;;;5.60;2.42;;;;;;;10.43;85.27;97636.02;1450048;89;22024;-93
2023/01/18 00:56:16;;;;;;;5.93;2.47;;;;;;;10.46;84.48;97632.13;1449419;89;21514;-89
2023/01/18 00:58:42;;;;;;;5.77;2.17;;;;;;;10.49;84.85;97623.77;1449450;89;21442;-89
2023/01/18 01:01:10;;;;;;;6.30;3.03;;;;;;;10.49;84.27;97626.41;1451787;89;22809;-89
2023/01/18 01:06:43;;;;;;;3.00;2.30;;;;;;;10.48;85.28;97614.22;1449857;89;21560;-88
2023/01/18 01:09:21;;;;;;;6.23;2.40;;;;;;;10.47;85.00;97619.20;1449214;89;21507;-88
2023/01/18 01:28:24;;;;;;;9.00;2.23;;;;;;;10.38;85.31;97617.33;1444798;89;21633;-87
2023/01/18 01:30:50;;;;;;;5.27;2.87;;;;;;;10.39;85.96;97623.73;1444634;89;21648;-88
2023/01/18 01:33:18;;;;;;;3.00;2.40;;;;;;;10.36;85.66;97628.14;1440122;89;21441;-84
2023/01/18 01:35:44;;;;;;;4.47;2.40;;;;;;;10.33;86.31;97621.95;1445738;89;21463;-83
2023/01/18 01:38:10;;;;;;;10.17;2.90;;;;;;;10.30;86.63;97634.28;1443604;89;21522;-83
2023/01/18 01:40:37;;;;;;;3.17;2.63;;;;;;;10.27;86.19;97642.64;1447558;90;22411;-83
2023/01/18 01:43:03;;;;;;;2.80;2.37;;;;;;;10.29;86.05;97649.83;1451291;89;21500;-81
2023/01/18 01:45:33;;;;;;;7.57;3.07;;;;;;;10.30;86.65;97658.08;1457027;89;22024;-81
2023/01/18 01:47:59;;;;;;;5.03;3.23;;;;;;;10.28;86.91;97649.54;1451677;89;22623;-82
2023/01/18 01:50:36;;;;;;;3.40;2.80;;;;;;;10.26;86.93;97662.64;1456565;89;21559;-82
2023/01/18 01:53:03;;;;;;;4.50;2.67;;;;;;;10.22;87.09;97656.16;1456497;89;22090;-85
2023/01/18 01:55:34;;;;;;;5.73;3.13;;;;;;;10.22;86.98;97663.58;1437350;89;21693;-83
2023/01/18 01:58:05;;;;;;;7.30;3.22;;;;;;;10.21;87.45;97663.27;1432091;91;21478;-84
2023/01/18 02:00:32;;;;;;;4.43;2.80;;;;;;;10.15;87.47;97665.44;1437068;91;21537;-83
2023/01/18 02:03:03;;;;;;;4.10;2.67;;;;;;;10.16;87.78;97663.11;1429840;91;21455;-84
2023/01/18 02:05:32;;;;;;;4.10;2.98;;;;;;;10.15;87.71;97668.08;1451977;88;21564;-85
2023/01/18 02:08:01;;;;;;;4.80;2.60;;;;;;;10.13;88.01;97676.75;1446857;88;21404;-85
2023/01/18 02:10:29;;;;;;;6.37;3.10;;;;;;;10.11;87.98;97680.91;1438573;89;21478;-85
2023/01/18 02:12:57;;;;;;;3.80;2.50;;;;;;;10.09;88.36;97678.18;1443697;89;21589;-90
2023/01/18 02:15:28;;;;;;;4.37;3.10;;;;;;;10.06;88.28;97691.30;1432725;89;22498;-82
2023/01/18 02:18:33;;;;;;;4.83;3.37;;;;;;;10.09;88.41;97695.35;1449808;89;21499;-88
2023/01/18 02:21:21;;;;;;;4.60;3.57;;;;;;;10.06;87.96;97693.14;1446338;89;21455;-90
2023/01/18 02:24:27;;;;;;;6.80;2.90;;;;;;;10.06;87.83;97712.95;1408396;92;22300;-88
2023/01/18 02:27:06;;;;;;;5.07;3.00;;;;;;;10.10;87.90;97712.34;1434498;90;22360;-88
2023/01/18 02:30:23;;;;;;;5.07;3.40;;;;;;;10.11;87.50;97713.14;1414354;90;22485;-92
2023/01/18 02:33:07;;;;;;;5.67;3.47;;;;;;;10.10;87.40;97726.06;1412070;90;22151;-88
2023/01/18 02:35:48;;;;;;;3.87;2.90;;;;;;;10.10;87.93;97729.52;1427826;89;21759;-90
2023/01/18 02:38:43;;;;;;;4.65;3.05;;;;;;;10.09;88.51;97713.34;1444078;89;22558;-91
2023/01/18 02:46:29;;;;;;;4.40;3.20;;;;;;;10.05;88.66;97711.34;1445866;89;22427;-91
2023/01/18 02:46:43;;;;;;;4.33;3.30;;;;;;;10.02;88.17;97724.46;1441513;90;22419;-89
2023/01/18 02:49:20;;;;;;;6.03;3.80;;;;;;;10.01;88.11;97712.28;1447974;90;21466;-87
2023/01/18 02:51:46;;;;;;;17.30;4.20;;;;;;;10.00;88.06;97725.69;1428443;90;22248;-82
2023/01/18 02:54:23;;;;;;;5.43;3.33;;;;;;;10.01;87.99;97723.34;1435053;90;21502;-83
2023/01/18 02:56:48;;;;;;;5.80;4.17;;;;;;;10.00;88.03;97725.69;1445340;90;21487;-83
2023/01/18 02:59:23;;;;;;;7.50;3.27;;;;;;;9.98;88.06;97722.44;1449207;90;21739;-83
2023/01/18 03:02:03;;;;;;;6.43;3.33;;;;;;;9.93;88.42;97711.19;1442660;90;21539;-82
2023/01/18 03:04:37;;;;;;;5.87;3.10;;;;;;;9.89;88.47;97729.27;1443622;90;21584;-83
2023/01/18 03:07:20;;;;;;;7.23;3.77;;;;;;;9.86;88.71;97728.37;1433554;90;22433;-81
2023/01/18 03:09:47;;;;;;;4.50;3.53;;;;;;;9.84;88.58;97727.79;1439434;90;22061;-83
2023/01/18 03:12:44;;;;;;;7.27;3.63;;;;;;;9.80;88.83;97733.17;1440954;90;22366;-84
2023/01/18 03:15:24;;;;;;;4.57;3.50;;;;;;;9.76;89.03;97735.94;1441146;90;21436;-84
2023/01/18 03:18:01;;;;;;;6.07;4.33;;;;;;;9.75;89.14;97758.58;1442774;90;21465;-84
2023/01/18 03:20:32;;;;;;;8.57;3.90;;;;;;;9.75;89.03;97734.81;1447123;90;21495;-89
2023/01/18 03:25:56;;;;;;;5.53;3.67;;;;;;;9.70;89.21;97734.12;1446984;90;22509;-86
2023/01/18 03:34:39;;;;;;;6.50;4.70;;;;;;;9.69;89.07;97745.69;1432398;90;21457;-85
2023/01/18 03:37:17;;;;;;;5.05;3.45;;;;;;;9.70;88.54;97748.66;1439623;90;21547;-83
2023/01/18 03:39:51;;;;;;;5.20;3.50;;;;;;;9.73;88.96;97754.84;1440905;90;21568;-83
2023/01/18 03:42:25;;;;;;;6.50;4.27;;;;;;;9.73;88.76;97760.64;1442640;90;21471;-83
2023/01/18 03:45:10;;;;;;;13.17;4.63;;;;;;;9.76;88.50;97764.99;1435372;91;21597;-83
2023/01/18 03:47:36;;;;;;;5.97;4.10;;;;;;;9.79;88.31;97772.50;1441741;91;21518;-83
2023/01/18 03:50:04;;;;;;;6.77;4.57;;;;;;;9.78;88.06;97772.20;1439347;90;22352;-83
2023/01/18 03:52:41;;;;;;;6.30;4.63;;;;;;;9.80;87.91;97774.63;1441168;90;22120;-84
2023/01/18 03:55:25;;;;;;;5.63;4.13;;;;;;;9.81;88.02;97777.08;1440083;90;21627;-91
2023/01/18 03:58:01;;;;;;;8.53;4.50;;;;;;;9.80;87.83;97772.80;1438564;91;21516;-91
2023/01/18 04:00:30;;;;;;;10.33;4.80;;;;;;;9.83;87.81;97763.13;1430944;91;22360;-90
2023/01/18 04:02:57;;;;;;;8.10;4.40;;;;;;;9.84;87.67;97761.30;1438382;91;21449;-90
2023/01/18 04:05:24;;;;;;;6.43;4.80;;;;;;;9.82;87.72;97765.48;1439838;90;21700;-90
2023/01/18 04:07:51;;;;;;;6.17;3.73;;;;;;;9.82;87.68;97757.55;1442059;90;22444;-89
2023/01/18 04:10:17;;;;;;;7.47;4.40;;;;;;;9.83;87.58;97757.84;1436174;90;21676;-87
2023/01/18 04:12:44;;;;;;;7.77;4.97;;;;;;;9.85;87.47;97775.63;1437802;90;21472;-89
2023/01/18 04:15:10;;;;;;;12.47;5.83;;;;;;;9.86;87.27;97775.11;1443514;91;21464;-88
2023/01/18 04:17:39;;;;;;;7.70;4.37;;;;;;;9.87;87.56;97774.11;1438027;90;21494;-88
2023/01/18 04:20:06;;;;;;;6.07;4.13;;;;;;;9.85;87.41;97778.27;1433160;90;21619;-88
2023/01/18 04:22:32;;;;;;;9.00;5.37;;;;;;;9.88;87.68;97783.66;1438801;90;21683;-85
2023/01/18 04:24:58;;;;;;;8.80;5.03;;;;;;;9.86;87.12;97781.72;1433430;90;21463;-85
2023/01/18 04:27:25;;;;;;;9.67;5.77;;;;;;;9.84;87.10;97770.54;1442376;91;22410;-86
2023/01/18 04:29:51;;;;;;;5.67;4.40;;;;;;;9.84;87.04;97776.66;1440267;90;21464;-86
2023/01/18 04:32:18;;;;;;;6.60;4.83;;;;;;;9.83;86.96;97776.34;1439109;91;22498;-85
2023/01/18 04:34:44;;;;;;;6.27;4.80;;;;;;;9.83;87.37;97781.63;1437021;90;21575;-84
2023/01/18 04:37:10;;;;;;;8.33;4.80;;;;;;;9.86;87.47;97783.04;1417047;91;21493;-86
2023/01/18 04:39:36;;;;;;;8.77;5.23;;;;;;;9.83;86.80;97778.98;1442478;90;21589;-84
2023/01/18 04:42:02;;;;;;;8.77;4.90;;;;;;;9.85;87.22;97776.95;1431401;90;22277;-85
2023/01/18 04:44:28;;;;;;;10.57;5.30;;;;;;;9.86;87.22;97781.20;1436633;91;21478;-84
2023/01/18 04:46:54;;;;;;;9.87;5.00;;;;;;;9.85;87.24;97788.84;1438439;90;21450;-86
2023/01/18 04:49:21;;;;;;;6.07;4.60;;;;;;;9.84;87.33;97790.35;1440335;91;22219;-91
2023/01/18 04:51:47;;;;;;;7.27;5.10;;;;;;;9.83;87.34;97789.55;1437100;90;21486;-87
2023/01/18 04:54:17;;;;;;;7.73;4.97;;;;;;;9.86;87.65;97795.73;1448934;90;21457;-94
2023/01/18 04:56:44;;;;;;;11.08;6.83;;;;;;;9.87;87.63;97790.77;1438250;91;21649;-91
2023/01/18 04:59:15;;;;;;;15.30;8.93;;;;;;;9.89;87.76;97791.88;1442504;91;21457;-91
2023/01/18 05:01:42;;;;;;;12.88;8.08;;;;;;;9.89;87.71;97791.36;1437451;91;21581;-87
2023/01/18 05:04:08;;;;;;;21.40;12.00;;;;;;;9.87;87.55;97792.61;1436606;91;21471;-88
2023/01/18 05:06:34;;;;;;;13.20;9.07;;;;;;;9.83;87.40;97794.83;1435516;91;21471;-87
2023/01/18 05:09:00;;;;;;;16.33;9.23;;;;;;;9.82;87.67;97795.05;1439688;91;21508;-86
2023/01/18 05:11:27;;;;;;;12.90;8.13;;;;;;;9.80;87.77;97791.80;1440573;90;21442;-86
2023/01/18 05:13:53;;;;;;;8.87;5.10;;;;;;;9.77;87.61;97789.57;1438423;91;21574;-85
2023/01/18 05:16:22;;;;;;;7.43;5.33;;;;;;;9.78;87.81;97785.90;1434595;90;21545;-86
2023/01/18 05:18:48;;;;;;;7.40;5.33;;;;;;;9.80;88.03;97791.28;1435278;90;21478;-88
2023/01/18 05:21:15;;;;;;;8.87;5.00;;;;;;;9.78;88.25;97787.22;1409966;91;21501;-87
2023/01/18 05:23:41;;;;;;;7.53;5.23;;;;;;;9.75;88.57;97784.48;1435272;90;21391;-89
2023/01/18 05:30:10;;;;;;;6.33;4.77;;;;;;;9.68;89.47;97773.94;1437374;91;22581;-88
2023/01/18 05:32:36;;;;;;;8.60;4.83;;;;;;;9.66;89.76;97774.64;1439074;90;21658;-90
2023/01/18 05:35:04;;;;;;;8.03;4.83;;;;;;;9.65;90.17;97774.87;1435515;90;21546;-90
2023/01/18 05:41:30;;;;;;;10.37;5.47;;;;;;;9.60;90.41;97778.62;1436141;91;21494;-88
2023/01/18 05:43:56;;;;;;;7.27;4.60;;;;;;;9.55;90.69;97774.47;1442558;90;21420;-88
2023/01/18 05:46:22;;;;;;;9.30;5.50;;;;;;;9.51;90.83;97775.39;1432830;90;21399;-83
2023/01/18 05:48:48;;;;;;;9.70;5.70;;;;;;;9.46;91.40;97772.03;1438698;90;21494;-86
2023/01/18 05:51:14;;;;;;;16.17;5.97;;;;;;;9.43;92.19;97771.12;1436934;90;21583;-86
2023/01/18 05:53:41;;;;;;;8.70;5.07;;;;;;;9.42;92.35;97773.47;1439224;90;22418;-89
2023/01/18 05:56:08;;;;;;;8.07;5.13;;;;;;;9.41;92.92;97771.05;1427471;91;21516;-86
2023/01/18 05:58:35;;;;;;;13.40;5.10;;;;;;;9.42;93.24;97779.27;1439669;91;21523;-88
2023/01/18 06:01:01;;;;;;;10.37;6.60;;;;;;;9.42;93.29;97777.44;1435983;91;21697;-87
2023/01/18 06:03:27;;;;;;;10.20;7.07;;;;;;;9.42;93.23;97778.75;1440476;91;21673;-87
2023/01/18 06:05:53;;;;;;;11.57;7.37;;;;;;;9.43;93.33;97778.23;1438626;91;21700;-87
2023/01/18 06:08:20;;;;;;;16.87;6.50;;;;;;;9.40;94.07;97779.45;1429640;91;21442;-88
2023/01/18 06:11:00;;;;;;;8.73;5.27;;;;;;;9.39;93.36;97785.77;1435074;90;22292;-88
2023/01/18 06:13:29;;;;;;;9.43;6.23;;;;;;;9.36;94.41;97768.20;1408992;91;22855;-90
2023/01/18 06:15:57;;;;;;;6.87;4.67;;;;;;;9.30;94.78;97762.43;1434185;90;22390;-87
2023/01/18 06:18:26;;;;;;;7.60;5.10;;;;;;;9.24;95.37;97750.86;1429226;90;21666;-87
2023/01/18 06:20:56;;;;;;;8.17;5.37;;;;;;;9.19;97.09;97738.78;1439738;91;22003;-86
2023/01/18 06:23:23;;;;;;;9.43;6.03;;;;;;;9.15;97.80;97754.70;1432898;91;21464;-90
2023/01/18 06:25:50;;;;;;;8.77;6.10;;;;;;;9.13;97.46;97746.20;1433774;91;21723;-86
2023/01/18 06:28:18;;;;;;;8.57;5.23;;;;;;;9.12;97.57;97753.31;1442654;91;21465;-89
2023/01/18 06:30:51;;;;;;;11.17;6.67;;;;;;;9.13;97.39;97765.98;1441996;90;21441;-90
2023/01/18 06:33:14;;;;;;;12.17;5.80;;;;;;;9.15;97.53;97759.50;1442361;90;21523;-90
2023/01/18 06:35:40;;;;;;;14.30;7.77;;;;;;;9.18;97.62;97756.96;1433569;90;21641;-86
2023/01/18 06:38:06;;;;;;;10.53;7.93;;;;;;;9.17;97.71;97753.48;1435709;91;21582;-89
2023/01/18 06:40:33;;;;;;;9.57;7.03;;;;;;;9.15;97.83;97752.06;1443323;91;21479;-89
2023/01/18 06:42:59;;;;;;;10.03;6.90;;;;;;;9.10;97.89;97742.65;1441252;90;21478;-90
2023/01/18 06:45:27;;;;;;;14.07;7.90;;;;;;;9.03;98.26;97742.14;1441930;90;21435;-91
2023/01/18 06:47:53;;;;;;;12.47;5.77;;;;;;;8.96;99.04;97746.59;1432325;91;21508;-89
2023/01/18 06:50:20;;;;;;;11.97;6.33;;;;;;;8.90;100.00;97753.20;1437786;91;21472;-89
2023/01/18 06:52:47;;;;;;;10.30;5.40;;;;;;;8.84;100.00;97752.17;1436532;90;21465;-89
2023/01/18 06:55:14;;;;;;;12.57;5.83;;;;;;;8.78;100.00;97749.83;1434584;91;21674;-87
2023/01/18 06:57:41;;;;;;;13.63;7.70;;;;;;;8.77;100.00;97748.19;1431919;90;21663;-88
2023/01/18 07:00:09;;;;;;;19.67;10.17;;;;;;;8.78;100.00;97750.34;1430456;91;21472;-89
2023/01/18 07:02:36;;;;;;;14.60;10.60;;;;;;;8.79;100.00;97744.05;1436527;91;23114;-88
2023/01/18 07:05:04;;;;;;;19.60;12.67;;;;;;;8.80;100.00;97739.06;1437684;91;21472;-87
2023/01/18 07:07:31;;;;;;;17.50;11.83;;;;;;;8.79;100.00;97738.77;1434669;91;21516;-89
2023/01/18 07:09:57;;;;;;;24.67;16.57;;;;;;;8.78;100.00;97730.56;1434767;91;21656;-88
2023/01/18 07:12:23;;;;;;;37.07;27.73;;;;;;;8.77;100.00;97731.05;1428002;91;22565;-89
2023/01/18 07:14:50;;;;;;;35.83;24.63;;;;;;;8.75;100.00;97729.66;1437214;91;21583;-87
2023/01/18 07:17:16;;;;;;;34.20;25.10;;;;;;;8.76;100.00;97733.39;1432164;91;21721;-89
2023/01/18 07:19:43;;;;;;;30.20;20.90;;;;;;;8.77;100.00;97732.88;1440194;91;21435;-87
2023/01/18 07:22:09;;;;;;;25.50;14.60;;;;;;;8.78;100.00;97735.84;1436639;91;21398;-84
2023/01/18 07:24:35;;;;;;;9.27;6.77;;;;;;;8.80;100.00;97731.16;1440516;91;21449;-90
2023/01/18 07:27:02;;;;;;;11.03;5.60;;;;;;;8.78;100.00;97724.78;1438046;90;21500;-89
2023/01/18 07:29:28;;;;;;;7.10;4.63;;;;;;;8.80;100.00;97721.44;1436700;91;21676;-89
2023/01/18 07:31:55;;;;;;;9.63;5.50;;;;;;;8.79;100.00;97714.53;1440058;90;21442;-89
2023/01/18 07:34:23;;;;;;;7.90;4.40;;;;;;;8.83;100.00;97724.16;1432284;91;21590;-89
2023/01/18 07:36:49;;;;;;;6.93;3.33;;;;;;;8.86;100.00;97722.46;1438915;90;21604;-86
2023/01/18 07:39:15;;;;;;;5.97;3.50;;;;;;;8.89;100.00;97709.34;1434351;91;22323;-90
2023/01/18 07:41:41;;;;;;;6.07;3.27;;;;;;;8.91;100.00;97704.18;1439484;90;21376;-89
2023/01/18 07:44:09;;;;;;;5.47;3.03;;;;;;;9.00;100.00;97706.10;1438013;91;21391;-89
2023/01/18 07:46:35;;;;;;;9.23;4.30;;;;;;;9.13;100.00;97717.17;1439578;90;21310;-89
2023/01/18 07:49:04;;;;;;;5.43;3.60;;;;;;;9.25;100.00;97713.69;1436833;91;22380;-89
2023/01/18 07:51:32;;;;;;;8.50;4.80;;;;;;;9.37;100.00;97715.20;1431539;90;21383;-89
2023/01/18 07:53:58;;;;;;;7.70;3.80;;;;;;;9.47;100.00;97714.28;1432952;90;22558;-90
2023/01/18 07:56:24;;;;;;;6.67;4.23;;;;;;;9.54;100.00;97724.81;1439817;90;21383;-90
2023/01/18 07:58:53;;;;;;;7.57;4.03;;;;;;;9.59;100.00;97727.65;1440935;91;21368;-90
2023/01/18 08:01:22;;;;;;;6.77;3.80;;;;;;;9.63;100.00;97732.00;1436346;91;21509;-90
2023/01/18 08:03:49;;;;;;;7.60;4.53;;;;;;;9.68;100.00;97746.72;1440056;91;21361;-90
2023/01/18 08:06:26;;;;;;;4.00;2.73;;;;;;;9.73;99.51;97752.20;1435695;90;21398;-90
2023/01/18 08:08:55;;;;;;;3.73;2.70;;;;;;;9.82;97.20;97750.15;1426142;91;21479;-90
2023/01/18 08:11:21;;;;;;;2.63;1.73;;;;;;;9.97;97.39;97746.73;1428733;91;21457;-88
2023/01/18 08:13:49;;;;;;;2.87;1.60;;;;;;;10.12;94.64;97762.32;1437526;91;22431;-87
2023/01/18 08:16:16;;;;;;;3.00;1.80;;;;;;;10.24;93.34;97773.88;1433742;90;21435;-88
2023/01/18 08:18:44;;;;;;;3.17;1.30;;;;;;;10.39;93.80;97767.83;1435884;90;21405;-89
2023/01/18 08:21:12;;;;;;;3.93;1.40;;;;;;;10.45;93.22;97788.66;1435750;90;22393;-85
2023/01/18 08:23:38;;;;;;;4.90;2.33;;;;;;;10.50;93.65;97777.42;1439645;90;21333;-87
2023/01/18 08:26:06;;;;;;;4.30;2.43;;;;;;;10.52;94.51;97797.35;1436526;91;21421;-90
2023/01/18 08:28:33;;;;;;;4.00;2.33;;;;;;;10.48;92.99;97782.94;1431202;91;21497;-90
2023/01/18 08:31:13;;;;;;;3.13;2.10;;;;;;;10.50;93.32;97815.77;1442187;90;22410;-86
2023/01/18 08:33:47;;;;;;;3.50;2.60;;;;;;;10.38;97.75;97808.49;1440358;90;21405;-89
2023/01/18 08:36:18;;;;;;;5.67;2.47;;;;;;;10.18;100.00;97819.63;1444558;91;21383;-88
2023/01/18 08:38:58;;;;;;;5.37;2.62;;;;;;;10.01;100.00;97819.78;1437638;91;21331;-90
2023/01/18 08:41:28;;;;;;;3.10;1.70;;;;;;;9.85;100.00;97831.63;1440665;90;21383;-91
2023/01/18 08:43:56;;;;;;;3.70;1.50;;;;;;;9.73;100.00;97836.72;1440873;90;21503;-90
2023/01/18 08:46:23;;;;;;;5.00;2.40;;;;;;;9.62;100.00;97839.47;1433119;90;22233;-90
2023/01/18 08:48:51;;;;;;;5.00;1.80;;;;;;;9.57;100.00;97843.73;1432444;90;21346;-89
2023/01/18 08:51:18;;;;;;;4.23;1.53;;;;;;;9.50;100.00;97855.62;1436209;90;21836;-88
2023/01/18 08:53:50;;;;;;;2.87;1.60;;;;;;;9.48;100.00;97852.37;1439687;90;21383;-90
2023/01/18 08:56:13;;;;;;;4.20;3.07;;;;;;;9.48;100.00;97857.13;1440936;90;22344;-88
2023/01/18 08:58:39;;;;;;;7.70;2.60;;;;;;;9.53;100.00;97851.77;1439571;91;21353;-89
2023/01/18 09:01:08;;;;;;;5.23;2.63;;;;;;;9.62;100.00;97836.83;1433089;91;21324;-92
2023/01/18 09:03:35;;;;;;;4.00;2.13;;;;;;;9.69;100.00;97847.38;1439686;91;21553;-90
2023/01/18 09:06:06;;;;;;;4.90;2.60;;;;;;;9.73;100.00;97844.64;1439742;90;21361;-90
2023/01/18 09:08:33;;;;;;;2.30;1.60;;;;;;;9.75;100.00;97833.86;1439934;90;21354;-88
2023/01/18 09:11:09;;;;;;;4.80;2.40;;;;;;;9.80;100.00;97853.88;1437463;90;21383;-91
2023/01/18 09:13:37;;;;;;;3.53;1.97;;;;;;;9.89;100.00;97862.69;1440281;90;21332;-91
2023/01/18 09:16:07;;;;;;;3.53;2.20;;;;;;;9.92;100.00;97878.12;1437034;90;21465;-91
2023/01/18 09:18:35;;;;;;;4.65;2.52;;;;;;;9.84;99.86;97866.48;1429887;90;21516;-92
2023/01/18 09:21:08;;;;;;;6.17;2.20;;;;;;;9.84;99.90;97890.73;1432730;90;21412;-88
2023/01/18 09:23:35;;;;;;;2.73;1.80;;;;;;;9.73;99.38;97897.47;1438399;91;21530;-91
2023/01/18 09:26:06;;;;;;;2.17;1.20;;;;;;;9.69;97.01;97893.59;1430982;91;22338;-88
2023/01/18 09:28:32;;;;;;;2.35;0.90;;;;;;;9.62;95.23;97909.96;1432902;90;21656;-89
2023/01/18 09:31:01;;;;;;;3.10;1.53;;;;;;;9.60;94.94;97905.37;1439109;91;21479;-88
2023/01/18 09:33:29;;;;;;;2.60;1.30;;;;;;;9.53;93.46;97905.39;1434573;90;21766;-86
2023/01/18 09:35:58;;;;;;;6.73;2.67;;;;;;;9.51;93.88;97906.59;1444403;90;21858;-88
2023/01/18 09:38:24;;;;;;;3.93;1.73;;;;;;;9.44;94.34;97904.77;1436956;90;21449;-89
2023/01/18 09:40:52;;;;;;;2.10;1.30;;;;;;;9.40;93.66;97908.81;1446900;90;21385;-89
2023/01/18 09:43:38;;;;;;;5.10;1.97;;;;;;;9.32;92.36;97912.15;1432418;90;22286;-87
2023/01/18 09:46:14;;;;;;;3.23;1.40;;;;;;;9.28;92.03;97936.82;1438006;91;21383;-90
2023/01/18 09:48:43;;;;;;;1.63;1.27;;;;;;;9.29;92.35;97941.59;1439777;90;22381;-88
2023/01/18 09:51:26;;;;;;;2.97;1.67;;;;;;;9.29;92.30;97959.55;1443282;90;22227;-91
2023/01/18 09:54:23;;;;;;;3.80;1.93;;;;;;;9.33;92.75;97981.91;1434648;90;22428;-88
2023/01/18 09:57:00;;;;;;;2.30;1.60;;;;;;;9.30;91.94;97970.44;1442712;91;21353;-87
2023/01/18 09:59:43;;;;;;;5.80;1.73;;;;;;;9.28;91.84;97886.67;1449929;90;21464;-88
2023/01/18 10:02:24;;;;;;;;;;;;;;;9.30;92.17;97917.64;1442542;90;21472;-87
2023/01/18 10:05:14;;;;;;;4.17;1.95;;;;;;;9.49;91.55;97986.84;1442710;90;20248;-88
2023/01/18 10:08:02;;;;;;;1.82;1.50;;;;;;;10.01;88.58;98000.79;1438659;90;21390;-86
2023/01/18 10:10:23;;;;;;;3.00;1.63;;;;;;;10.09;87.03;98005.88;1428554;91;22279;-86
2023/01/18 10:12:58;;;;;;;3.37;1.60;;;;;;;10.35;84.03;97992.66;1431009;90;22225;-89
2023/01/18 10:15:28;;;;;;;4.77;2.23;;;;;;;10.79;82.42;98007.05;1434362;91;21449;-83
2023/01/18 10:17:59;;;;;;;3.15;1.47;;;;;;;11.02;78.67;98011.05;1445011;91;21419;-82
2023/01/18 10:21:01;;;;;;;4.83;1.72;;;;;;;11.10;77.54;98022.70;1444953;90;21652;-83
2023/01/18 10:23:33;;;;;;;3.90;1.70;;;;;;;11.12;77.05;98043.17;1433661;90;22046;-79
2023/01/18 10:26:10;;;;;;;1.63;1.33;;;;;;;11.02;76.60;98046.78;1437617;91;21316;-81
2023/01/18 10:28:55;;;;;;;4.03;1.33;;;;;;;10.88;76.20;98061.88;1433291;90;21686;-83
2023/01/18 10:31:48;;;;;;;1.30;0.90;;;;;;;10.63;74.86;98055.61;1438720;91;21368;-77
2023/01/18 10:34:19;;;;;;;1.47;1.07;;;;;;;10.59;71.90;98056.02;1436042;90;21464;-77
2023/01/18 10:36:54;;;;;;;4.03;1.67;;;;;;;10.41;74.76;98074.33;1437093;90;21457;-77
2023/01/18 10:39:47;;;;;;;3.83;1.20;;;;;;;10.34;76.34;98084.91;1434639;91;21456;-76
2023/01/18 10:42:23;;;;;;;0.80;0.80;;;;;;;10.23;74.64;98092.61;1440488;90;21561;-85
2023/01/18 10:44:49;;;;;;;1.63;0.90;;;;;;;9.92;74.10;98107.99;1428911;91;21413;-84
2023/01/18 10:47:17;;;;;;;0.87;0.70;;;;;;;9.61;74.47;98112.98;1435885;91;21481;-86
2023/01/18 10:49:49;;;;;;;1.17;0.70;;;;;;;9.46;75.33;98119.73;1447993;90;21473;-87
2023/01/18 10:52:29;;;;;;;;;;;;;;;9.22;75.34;98119.73;1449615;91;21280;-86
2023/01/18 10:55:06;;;;;;;1.30;0.90;;;;;;;9.01;75.98;98122.77;1439126;90;20403;-88
2023/01/18 10:57:53;;;;;;;0.83;0.80;;;;;;;8.85;76.60;98130.97;1443725;90;21529;-86
2023/01/18 11:00:33;;;;;;;1.47;1.00;;;;;;;8.69;78.08;98156.30;1438930;90;21420;-85
2023/01/18 11:03:03;;;;;;;1.17;0.90;;;;;;;8.57;79.27;98168.70;1432433;90;21414;-87
2023/01/18 11:05:41;;;;;;;1.17;1.07;;;;;;;8.52;80.25;98172.41;1436152;90;21413;-87
2023/01/18 11:08:32;;;;;;;0.90;0.90;;;;;;;8.47;80.01;98189.28;1435025;91;22469;-86
2023/01/18 11:11:19;;;;;;;1.10;0.83;;;;;;;8.39;80.61;98178.86;1444049;91;21399;-86
2023/01/18 11:13:49;;;;;;;1.20;0.90;;;;;;;8.36;81.02;98189.24;1438561;91;21428;-88
2023/01/18 11:16:21;;;;;;;7.53;3.87;;;;;;;8.32;82.02;98197.73;1425908;91;22286;-86
2023/01/18 11:19:01;;;;;;;2.42;1.52;;;;;;;8.37;81.27;98194.01;1432252;90;21515;-86
2023/01/18 11:21:41;;;;;;;1.00;0.80;;;;;;;8.40;80.79;98212.62;1431037;90;22916;-87
2023/01/18 11:24:16;;;;;;;2.42;1.17;;;;;;;8.37;78.30;98216.41;1436186;91;22404;-84
2023/01/18 11:26:57;;;;;;;2.77;1.63;;;;;;;8.51;78.98;98226.12;1439923;90;21265;-86
2023/01/18 11:29:31;;;;;;;1.10;0.90;;;;;;;8.63;78.58;98244.91;1433191;90;21471;-85
2023/01/18 11:32:05;;;;;;;2.53;1.60;;;;;;;8.59;76.53;98245.77;1440581;91;22301;-86
2023/01/18 11:34:39;;;;;;;1.87;1.63;;;;;;;8.68;77.72;98253.56;1438714;90;21554;-88
2023/01/18 11:37:35;;;;;;;4.00;1.67;;;;;;;8.57;77.67;98258.34;1432935;91;21405;-86
2023/01/18 11:40:27;;;;;;;1.13;0.97;;;;;;;8.58;78.41;98269.20;1437561;91;22301;-85
2023/01/18 11:43:05;;;;;;;2.80;1.50;;;;;;;8.33;79.33;98286.33;1434324;91;21793;-85
2023/01/18 11:45:45;;;;;;;1.40;1.10;;;;;;;8.19;79.58;98304.30;1426947;91;21523;-86
2023/01/18 11:48:31;;;;;;;1.12;0.90;;;;;;;8.08;79.81;98320.88;1436231;90;22234;-87
2023/01/18 11:51:16;;;;;;;1.50;1.33;;;;;;;7.88;80.88;98321.95;1439218;90;21434;-87
2023/01/18 11:54:07;;;;;;;1.70;1.40;;;;;;;7.75;82.28;98346.78;1436525;90;21531;-87
2023/01/18 11:56:48;;;;;;;1.50;1.40;;;;;;;7.62;83.38;98350.05;1435938;90;21404;-85
2023/01/18 11:59:31;;;;;;;2.52;1.85;;;;;;;7.50;83.92;98371.19;1439065;91;21471;-86
2023/01/18 12:02:55;;;;;;;1.80;1.40;;;;;;;7.47;84.59;98371.55;1438189;90;21397;-85
2023/01/18 12:05:51;;;;;;;1.43;1.20;;;;;;;7.49;84.24;98389.81;1438863;90;21405;-91
2023/01/18 12:08:29;;;;;;;2.20;1.47;;;;;;;7.39;84.02;98384.30;1411618;92;22581;-88
2023/01/18 12:11:26;;;;;;;4.53;1.53;;;;;;;7.29;84.55;98400.81;1420745;92;21528;-87
2023/01/18 12:14:19;;;;;;;2.57;1.60;;;;;;;7.22;85.05;98424.39;1414144;92;21501;-88
2023/01/18 12:17:27;;;;;;;3.37;2.03;;;;;;;7.12;85.81;98428.23;1424747;92;21458;-88
2023/01/18 12:20:34;;;;;;;1.40;1.30;;;;;;;7.05;86.54;98438.64;1426501;92;21642;-86
2023/01/18 12:23:14;;;;;;;2.20;1.70;;;;;;;7.02;86.45;98448.19;1422263;92;21383;-88
2023/01/18 12:25:51;;;;;;;1.30;1.07;;;;;;;6.97;86.08;98441.30;1405709;92;22308;-87
2023/01/18 12:28:26;;;;;;;2.03;1.10;;;;;;;6.99;86.01;98452.45;1419698;92;22480;-89
2023/01/18 12:31:16;;;;;;;2.33;1.40;;;;;;;7.02;85.72;98440.30;1428316;92;21487;-86
2023/01/18 12:33:47;;;;;;;2.37;1.37;;;;;;;7.10;85.99;98438.91;1399116;93;21333;-88
2023/01/18 12:36:28;;;;;;;2.43;1.67;;;;;;;7.07;85.52;98443.20;1411090;92;21509;-89
2023/01/18 12:38:59;;;;;;;1.92;1.50;;;;;;;7.08;85.71;98464.59;1422460;92;21576;-87
2023/01/18 12:41:46;;;;;;;3.62;2.20;;;;;;;7.14;85.06;98452.06;1425720;92;21688;-88